Terminal Aerodrome Forecast
Issued by NWS

Home | Current Version | Previous Version | Text Only | Print | Product List | Glossary On
Versions: 1 2 3 4 5 6 7 8 9 10 11 12 13 14 15 16 17 18
000
FTUS46 KLOX 301700
TAFPRB
TAF
KPRB 301721Z 3018/3118 33006KT P6SM SCT250
     FM302100 32014KT P6SM SCT250
     FM310500 32008KT P6SM SKC
     FM311000 VRB03KT P6SM SKC=

USA.gov is the U.S. government's official web portal to all federal, state and local government web resources and services.